Time;durP1;ratioP1;P1;durP2;ratioP2;P2;SDS_P1;SDS_P2;PMS_P1;PMS_P2;Temp;Humidity;BMP_temperature;BMP_pressure;BME280_temperature;BME280_humidity;BME280_pressure;Samples;Min_cycle;Max_cycle;Signal;HPM_P1;HPM_P2
2021/05/27 00:00:25;;;;;;;18.58;14.93;;;;;;;11.89;73.26;100012.22;5035346;28;20069;-65
2021/05/27 00:02:52;;;;;;;;;;;;;;;11.95;72.90;100015.66;5053171;28;20394;-65
2021/05/27 00:05:21;;;;;;;17.63;14.10;;;;;;;11.96;72.60;100012.50;5052495;28;19920;-65
2021/05/27 00:07:49;;;;;;;18.00;14.20;;;;;;;11.97;72.98;100010.56;5052289;28;20057;-65
2021/05/27 00:10:18;;;;;;;19.73;14.48;;;;;;;11.95;72.75;100013.69;5052249;28;20490;-65
2021/05/27 00:12:45;;;;;;;19.50;14.98;;;;;;;11.89;73.15;100008.63;5052135;28;20053;-65
2021/05/27 00:15:16;;;;;;;17.15;14.52;;;;;;;11.91;73.17;100009.09;5051965;28;20048;-65
2021/05/27 00:17:43;;;;;;;18.52;16.33;;;;;;;11.85;73.18;100016.00;5052703;28;20052;-65
2021/05/27 00:20:12;;;;;;;20.42;16.10;;;;;;;11.88;73.59;100020.88;5052118;28;20053;-65
2021/05/27 00:22:39;;;;;;;19.65;16.00;;;;;;;11.83;73.34;100012.72;5052155;28;20409;-65
2021/05/27 00:25:07;;;;;;;20.13;15.18;;;;;;;11.85;73.51;100004.81;5051907;28;20057;-65
2021/05/27 00:27:34;;;;;;;18.63;15.60;;;;;;;11.88;73.62;100009.72;5052415;28;20079;-65
2021/05/27 00:30:01;;;;;;;20.05;15.20;;;;;;;11.94;73.37;100014.00;5052699;28;20053;-65
2021/05/27 00:32:31;;;;;;;17.35;14.30;;;;;;;11.93;73.17;100006.81;5052123;28;20513;-65
2021/05/27 00:34:58;;;;;;;17.95;14.02;;;;;;;11.96;72.75;100012.50;5051876;28;20075;-65
2021/05/27 00:37:25;;;;;;;17.42;13.43;;;;;;;12.01;72.56;100003.16;5052577;28;20060;-65
2021/05/27 00:39:52;;;;;;;18.10;13.07;;;;;;;12.01;72.55;100019.91;5051467;28;20049;-65
2021/05/27 00:42:19;;;;;;;14.77;13.20;;;;;;;12.00;72.74;100014.66;5051861;28;20056;-65
2021/05/27 00:44:58;;;;;;;15.70;13.13;;;;;;;12.04;72.69;100024.78;5052122;28;20056;-65
2021/05/27 00:47:25;;;;;;;15.18;12.02;;;;;;;12.03;72.21;100020.34;5052173;28;20064;-65
2021/05/27 00:49:56;;;;;;;14.48;12.18;;;;;;;12.09;72.16;100023.78;5051954;28;20057;-65
2021/05/27 00:52:23;;;;;;;14.05;12.30;;;;;;;12.12;72.11;100025.91;5051646;28;20048;-65
2021/05/27 00:54:53;;;;;;;16.55;12.82;;;;;;;12.10;72.06;100025.44;5051640;28;20481;-65
2021/05/27 00:57:31;;;;;;;13.40;10.88;;;;;;;12.06;71.83;100011.31;5051872;28;20057;-65
2021/05/27 00:59:59;;;;;;;12.10;10.80;;;;;;;12.00;72.31;100017.44;5051788;28;20351;-65
2021/05/27 01:02:26;;;;;;;12.43;10.88;;;;;;;12.04;71.89;100012.81;5052309;28;20060;-65
2021/05/27 01:04:54;;;;;;;12.02;10.35;;;;;;;12.02;71.72;100015.94;5051979;28;20414;-65
2021/05/27 01:07:22;;;;;;;11.85;9.05;;;;;;;12.09;71.68;100016.22;5052279;28;20048;-65
2021/05/27 01:09:50;;;;;;;11.57;9.93;;;;;;;12.06;71.64;100016.91;5051507;28;20053;-65
2021/05/27 01:12:16;;;;;;;11.23;9.13;;;;;;;12.04;70.99;100019.22;5051547;28;20049;-65
2021/05/27 01:17:25;;;;;;;12.05;9.18;;;;;;;11.93;71.66;100013.19;5039084;28;20052;-65
2021/05/27 01:19:53;;;;;;;13.52;10.60;;;;;;;11.94;71.88;100014.81;5051489;28;20500;-65
2021/05/27 01:22:22;;;;;;;11.63;9.20;;;;;;;11.94;71.58;100006.44;5052253;28;20048;-65
2021/05/27 01:24:49;;;;;;;13.80;10.50;;;;;;;11.95;71.93;100012.88;5055453;28;20412;-65
2021/05/27 01:27:16;;;;;;;12.45;10.40;;;;;;;12.00;71.64;100009.88;5055228;28;20057;-65
2021/05/27 01:29:44;;;;;;;10.55;9.10;;;;;;;12.00;71.61;100007.09;5054989;28;20056;-65
2021/05/27 01:32:10;;;;;;;12.85;10.50;;;;;;;12.02;71.60;100018.72;5055312;28;20401;-65
2021/05/27 01:34:37;;;;;;;11.75;10.48;;;;;;;12.10;71.33;100009.50;5055439;28;20059;-65
2021/05/27 01:37:04;;;;;;;12.15;10.40;;;;;;;12.06;71.61;100021.69;5054984;28;20064;-65
2021/05/27 01:39:32;;;;;;;14.52;10.65;;;;;;;12.04;71.35;100016.44;5054735;28;20048;-65
2021/05/27 01:42:02;;;;;;;12.27;9.82;;;;;;;12.09;71.74;100016.22;5055015;28;20056;-65
2021/05/27 01:44:29;;;;;;;13.77;11.52;;;;;;;12.08;71.72;100016.59;5054921;28;20049;-65
2021/05/27 01:46:56;;;;;;;12.27;10.98;;;;;;;12.06;71.55;100028.06;5055325;28;20060;-65
2021/05/27 01:49:23;;;;;;;13.68;11.18;;;;;;;12.13;71.31;100016.38;5054883;28;20060;-65
2021/05/27 01:51:50;;;;;;;14.70;12.73;;;;;;;12.10;71.44;100023.47;5055143;28;20053;-65
2021/05/27 01:54:17;;;;;;;14.32;12.32;;;;;;;12.11;71.71;100025.06;5054253;28;20055;-65
2021/05/27 01:56:45;;;;;;;15.45;12.60;;;;;;;12.04;71.80;100022.00;5054684;28;20049;-65
2021/05/27 01:59:12;;;;;;;15.73;12.85;;;;;;;12.06;72.21;100022.50;5055308;28;20059;-65
2021/05/27 02:01:40;;;;;;;17.58;14.98;;;;;;;12.04;72.91;100024.78;5054613;28;20052;-65
2021/05/27 02:04:07;;;;;;;17.13;14.32;;;;;;;12.02;72.63;100026.28;5055201;28;20521;-65
2021/05/27 02:06:36;;;;;;;16.75;14.35;;;;;;;12.06;72.64;100021.69;5055206;28;20045;-65
2021/05/27 02:09:10;;;;;;;20.02;14.57;;;;;;;12.07;72.66;100017.72;5054198;28;20053;-65
2021/05/27 02:11:38;;;;;;;16.77;13.38;;;;;;;12.09;72.67;100018.19;5054412;28;20390;-65
2021/05/27 02:14:10;;;;;;;16.90;14.85;;;;;;;12.09;73.00;100016.22;5054678;28;20060;-65
2021/05/27 02:16:38;;;;;;;19.50;14.80;;;;;;;12.09;72.63;100013.44;5054581;28;20410;-65
2021/05/27 02:19:05;;;;;;;16.08;13.85;;;;;;;12.03;73.03;100013.97;5053699;28;20485;-65
2021/05/27 02:21:32;;;;;;;20.38;15.25;;;;;;;12.04;73.13;100007.25;5054327;28;20048;-65
2021/05/27 02:24:00;;;;;;;20.88;16.05;;;;;;;12.05;73.20;100014.44;5054106;28;20041;-65
2021/05/27 02:26:28;;;;;;;18.05;14.93;;;;;;;11.92;73.56;100010.72;5054652;28;20053;-66
2021/05/27 02:28:55;;;;;;;17.60;14.18;;;;;;;11.90;73.65;100007.44;5054198;28;20056;-65
2021/05/27 02:31:24;;;;;;;20.90;13.43;;;;;;;11.91;73.66;100014.69;5054368;28;20494;-65
2021/05/27 02:33:52;;;;;;;22.05;14.82;;;;;;;11.83;74.29;100018.28;5054572;28;20379;-65
2021/05/27 02:36:19;;;;;;;17.70;14.40;;;;;;;11.92;74.13;100021.88;5053955;28;20049;-65
2021/05/27 02:38:46;;;;;;;17.58;13.23;;;;;;;11.92;74.15;100024.69;5053685;28;20056;-65
2021/05/27 02:41:13;;;;;;;17.67;13.77;;;;;;;11.94;74.21;100023.19;5054015;28;20060;-65
2021/05/27 02:43:40;;;;;;;16.10;13.93;;;;;;;11.95;74.12;100021.25;5053516;28;20064;-65
2021/05/27 02:46:07;;;;;;;19.50;14.15;;;;;;;12.00;74.03;100029.41;5054308;28;20057;-65
2021/05/27 02:48:35;;;;;;;18.77;15.23;;;;;;;11.90;74.65;100024.19;5054017;28;20064;-65
2021/05/27 02:51:03;;;;;;;18.02;13.15;;;;;;;11.86;74.70;100018.41;5051964;28;20406;-65
2021/05/27 02:53:30;;;;;;;15.05;12.80;;;;;;;11.79;74.69;100018.13;5053828;28;20397;-65
2021/05/27 02:55:57;;;;;;;18.98;14.52;;;;;;;11.84;75.13;100022.72;5054135;28;20379;-65
2021/05/27 02:58:24;;;;;;;17.90;14.15;;;;;;;11.83;75.04;100021.09;5053554;28;20462;-65
2021/05/27 03:00:51;;;;;;;18.45;15.00;;;;;;;11.87;75.76;100022.06;5053741;28;20049;-65
2021/05/27 03:03:20;;;;;;;18.33;14.27;;;;;;;11.73;76.17;100025.84;5054195;28;20064;-65
2021/05/27 03:05:49;;;;;;;20.45;14.82;;;;;;;11.73;75.65;100025.03;5052997;28;20061;-65
2021/05/27 03:08:16;;;;;;;16.90;14.15;;;;;;;11.77;75.87;100026.03;5053437;28;20059;-65
2021/05/27 03:10:43;;;;;;;17.98;14.65;;;;;;;11.75;76.34;100025.53;5053758;28;20049;-65
2021/05/27 03:13:11;;;;;;;19.95;15.38;;;;;;;11.82;76.14;100033.38;5052634;28;20508;-65
2021/05/27 03:15:38;;;;;;;19.08;14.25;;;;;;;11.81;75.85;100032.56;5052951;28;20477;-65
2021/05/27 03:18:06;;;;;;;19.40;15.80;;;;;;;11.83;76.09;100043.41;5052905;28;20061;-64
2021/05/27 03:20:35;;;;;;;19.83;15.20;;;;;;;11.82;76.04;100034.19;5052731;28;20057;-64
2021/05/27 03:23:03;;;;;;;19.63;14.90;;;;;;;11.82;76.67;100042.56;5053034;28;20059;-64
2021/05/27 03:25:30;;;;;;;19.00;14.60;;;;;;;11.83;76.19;100043.41;5053324;28;20060;-64
2021/05/27 03:27:57;;;;;;;21.25;15.30;;;;;;;11.84;76.53;100034.69;5053065;28;20049;-64
2021/05/27 03:30:25;;;;;;;18.95;15.50;;;;;;;11.87;76.64;100047.16;5053006;28;20060;-64
2021/05/27 03:32:53;;;;;;;19.17;16.67;;;;;;;11.83;76.89;100043.41;5052650;28;20049;-64
2021/05/27 03:35:20;;;;;;;21.75;16.95;;;;;;;11.83;77.07;100035.84;5052955;28;20064;-64
2021/05/27 03:37:47;;;;;;;26.15;17.30;;;;;;;11.81;77.49;100049.31;5052864;28;20071;-64
2021/05/27 03:40:16;;;;;;;22.50;17.65;;;;;;;11.79;77.77;100062.78;5052664;28;20049;-64
2021/05/27 03:42:45;;;;;;;22.90;17.05;;;;;;;11.81;77.75;100062.47;5053154;28;20067;-64
2021/05/27 03:45:14;;;;;;;22.48;17.83;;;;;;;11.78;77.85;100052.78;5052965;28;20053;-64
2021/05/27 03:47:41;;;;;;;20.50;14.20;;;;;;;11.74;77.28;100052.63;5054600;28;20056;-64
2021/05/27 03:50:11;;;;;;;17.98;12.63;;;;;;;11.74;76.93;100060.19;5053358;28;20053;-64
2021/05/27 03:52:38;;;;;;;15.60;11.88;;;;;;;11.63;76.60;100059.69;5052147;28;20057;-64
2021/05/27 03:55:07;;;;;;;17.17;12.85;;;;;;;11.65;77.04;100064.94;5052188;28;20053;-64
2021/05/27 03:57:35;;;;;;;22.98;11.57;;;;;;;11.65;76.28;100068.53;5052667;28;20065;-64
2021/05/27 04:02:49;;;;;;;13.80;10.50;;;;;;;11.59;75.87;100069.91;5056814;28;20079;-64
2021/05/27 04:08:00;;;;;;;13.63;9.95;;;;;;;11.57;75.63;100075.00;5053568;28;20055;-64
2021/05/27 04:10:30;;;;;;;18.58;11.65;;;;;;;11.52;76.05;100075.97;5052483;28;20053;-64
2021/05/27 04:12:58;;;;;;;16.73;9.88;;;;;;;11.59;75.41;100072.69;5052049;28;20049;-64
2021/05/27 04:15:27;;;;;;;16.05;10.13;;;;;;;11.56;75.40;100076.94;5052571;28;20057;-64
2021/05/27 04:17:57;;;;;;;15.90;10.30;;;;;;;11.53;75.59;100074.81;5052210;28;20053;-64
2021/05/27 04:20:25;;;;;;;14.80;10.60;;;;;;;11.57;75.25;100080.56;5052382;28;20053;-64
2021/05/27 04:22:53;;;;;;;15.43;10.55;;;;;;;11.55;75.33;100088.44;5052057;28;20063;-64
2021/05/27 04:25:21;;;;;;;15.57;10.35;;;;;;;11.51;75.14;100090.25;5051688;28;20057;-64
2021/05/27 04:27:49;;;;;;;14.48;10.18;;;;;;;11.50;75.34;100105.34;5052242;28;20478;-64
2021/05/27 04:30:19;;;;;;;19.50;10.85;;;;;;;11.51;75.08;100096.66;5051805;28;20052;-64
2021/05/27 04:32:55;;;;;;;16.48;11.50;;;;;;;11.45;75.88;100091.56;5052237;28;20057;-64
2021/05/27 04:35:27;;;;;;;17.88;11.82;;;;;;;11.50;75.70;100094.19;5053091;28;20063;-64
2021/05/27 04:37:55;;;;;;;16.10;10.32;;;;;;;11.53;75.58;100090.75;5052956;28;20065;-64
2021/05/27 04:40:23;;;;;;;16.98;11.35;;;;;;;11.61;75.38;100105.81;5034103;28;20060;-64
2021/05/27 04:42:51;;;;;;;17.52;11.55;;;;;;;11.58;75.08;100107.31;5033756;28;20057;-64
2021/05/27 04:45:19;;;;;;;18.67;11.18;;;;;;;11.55;74.79;100111.56;5034229;28;20068;-64
2021/05/27 04:47:46;;;;;;;18.33;11.98;;;;;;;11.60;75.06;100116.16;5033631;28;20060;-64
2021/05/27 04:50:14;;;;;;;18.52;12.10;;;;;;;11.64;75.12;100122.72;5033224;28;20053;-64
2021/05/27 04:52:41;;;;;;;19.10;12.25;;;;;;;11.66;74.75;100125.19;5034621;28;20053;-64
2021/05/27 04:55:10;;;;;;;22.13;12.95;;;;;;;11.68;74.52;100120.91;5053066;28;20052;-64
2021/05/27 04:57:37;;;;;;;19.58;13.75;;;;;;;11.70;74.74;100115.00;5055078;28;20041;-64
2021/05/27 05:00:07;;;;;;;18.85;14.43;;;;;;;11.71;74.63;100122.22;5056651;28;20401;-64
2021/05/27 05:02:35;;;;;;;19.23;12.93;;;;;;;11.67;73.89;100124.84;5057070;28;20053;-64
2021/05/27 05:05:02;;;;;;;18.70;12.85;;;;;;;11.69;74.11;100130.91;5055465;28;20401;-64
2021/05/27 05:07:29;;;;;;;23.30;14.98;;;;;;;11.72;74.19;100130.25;5057125;28;20369;-64
2021/05/27 05:09:56;;;;;;;22.13;14.90;;;;;;;11.74;74.26;100132.72;5058928;28;20053;-65
2021/05/27 05:12:23;;;;;;;25.05;16.63;;;;;;;11.74;74.10;100135.53;5058290;28;20049;-63
2021/05/27 05:14:50;;;;;;;24.73;16.33;;;;;;;11.80;74.57;100137.00;5057409;28;20057;-65
2021/05/27 05:17:17;;;;;;;21.23;15.65;;;;;;;11.86;74.20;100134.81;5056493;28;20045;-63
2021/05/27 05:19:45;;;;;;;21.92;15.27;;;;;;;11.89;74.04;100139.78;5054680;28;20053;-63
2021/05/27 05:22:11;;;;;;;18.80;14.05;;;;;;;11.86;73.57;100135.63;5056567;28;20060;-63
2021/05/27 05:24:38;;;;;;;21.65;15.00;;;;;;;11.83;74.14;100141.91;5056544;28;20065;-63
2021/05/27 05:27:06;;;;;;;22.35;14.40;;;;;;;11.82;74.14;100139.41;5056658;28;20063;-63
2021/05/27 05:29:33;;;;;;;18.90;12.88;;;;;;;11.87;73.43;100150.44;5057113;28;20378;-63
2021/05/27 05:32:00;;;;;;;19.40;13.20;;;;;;;11.84;73.90;100149.09;5057483;28;20057;-63
2021/05/27 05:34:27;;;;;;;18.20;13.00;;;;;;;11.83;74.06;100141.91;5057544;28;20049;-63
2021/05/27 05:36:54;;;;;;;21.90;13.95;;;;;;;11.83;74.36;100152.25;5056894;28;20057;-63
2021/05/27 05:39:22;;;;;;;20.23;14.57;;;;;;;11.83;74.31;100152.25;5051001;28;20071;-63
2021/05/27 05:41:48;;;;;;;19.38;13.82;;;;;;;11.83;74.02;100153.06;5055901;28;20055;-65
2021/05/27 05:44:18;;;;;;;19.83;14.25;;;;;;;11.79;74.30;100158.47;5056582;28;20049;-65
2021/05/27 05:46:45;;;;;;;19.98;14.43;;;;;;;11.82;74.01;100158.97;5055644;28;20068;-65
2021/05/27 05:49:12;;;;;;;17.38;13.35;;;;;;;11.78;74.24;100159.63;5055395;28;20053;-65
2021/05/27 05:51:39;;;;;;;19.50;12.75;;;;;;;11.87;74.23;100161.59;5055479;28;20053;-65
2021/05/27 05:54:06;;;;;;;19.60;13.57;;;;;;;11.81;74.10;100160.13;5056393;28;20497;-65
2021/05/27 05:56:33;;;;;;;19.73;13.68;;;;;;;11.93;73.90;100163.91;5054321;28;20053;-64
2021/05/27 05:59:00;;;;;;;21.58;13.73;;;;;;;11.88;74.34;100171.59;5053343;28;20056;-65
2021/05/27 06:01:27;;;;;;;18.17;12.20;;;;;;;11.98;74.01;100166.50;5054497;28;20044;-65
2021/05/27 06:03:54;;;;;;;15.02;11.88;;;;;;;12.02;73.93;100165.88;5054350;28;20057;-65
2021/05/27 06:06:24;;;;;;;15.50;10.77;;;;;;;12.10;73.56;100170.59;5053855;28;20052;-65
2021/05/27 06:08:51;;;;;;;14.73;10.50;;;;;;;12.14;72.55;100169.59;5053147;28;20068;-65
2021/05/27 06:11:19;;;;;;;14.25;9.80;;;;;;;12.25;72.70;100177.63;5054162;28;20064;-65
2021/05/27 06:13:46;;;;;;;13.88;9.18;;;;;;;12.32;71.80;100170.34;5053650;28;20053;-65
2021/05/27 06:16:13;;;;;;;15.20;10.13;;;;;;;12.25;71.50;100186.00;5054579;28;20053;-65
2021/05/27 06:18:42;;;;;;;17.08;11.52;;;;;;;12.22;71.74;100175.50;5053666;28;20045;-65
2021/05/27 06:21:09;;;;;;;13.77;10.88;;;;;;;12.17;72.32;100177.31;5053339;28;20049;-65
2021/05/27 06:23:36;;;;;;;16.10;11.88;;;;;;;12.37;72.44;100177.75;5053451;28;20052;-65
2021/05/27 06:26:06;;;;;;;14.38;10.40;;;;;;;12.51;71.69;100186.72;5054663;28;20413;-64
2021/05/27 06:28:34;;;;;;;15.05;10.98;;;;;;;12.62;71.43;100187.19;5053398;28;20045;-64
2021/05/27 06:31:01;;;;;;;16.30;10.75;;;;;;;12.54;71.20;100193.63;5053524;28;20052;-65
2021/05/27 06:33:28;;;;;;;18.27;10.82;;;;;;;12.57;71.69;100192.94;5054898;28;20474;-65
2021/05/27 06:35:55;;;;;;;19.50;10.40;;;;;;;12.68;71.22;100197.03;5054755;28;20049;-65
2021/05/27 06:38:22;;;;;;;12.63;8.90;;;;;;;12.78;70.61;100193.03;5053199;28;20398;-65
2021/05/27 06:40:49;;;;;;;14.60;10.75;;;;;;;12.99;70.99;100199.47;5053623;28;20056;-65
2021/05/27 06:43:16;;;;;;;13.10;10.00;;;;;;;13.10;69.79;100194.34;5053741;28;20080;-65
2021/05/27 06:45:43;;;;;;;14.65;9.60;;;;;;;13.27;69.97;100199.00;5053872;28;20060;-65
2021/05/27 06:48:10;;;;;;;15.60;11.77;;;;;;;13.45;69.30;100204.50;5047610;28;20072;-65
2021/05/27 06:50:39;;;;;;;13.15;10.10;;;;;;;13.25;69.46;100198.53;5042239;28;20504;-65
2021/05/27 06:53:08;;;;;;;13.02;9.70;;;;;;;13.35;68.90;100203.72;5048545;28;20048;-65
2021/05/27 06:55:36;;;;;;;13.45;9.60;;;;;;;13.22;69.08;100206.78;5052032;28;20423;-65
2021/05/27 06:58:03;;;;;;;13.23;9.23;;;;;;;13.26;69.10;100200.16;5051886;28;20385;-65
2021/05/27 07:00:31;;;;;;;13.18;9.45;;;;;;;13.26;68.72;100197.34;5052752;28;20048;-65
2021/05/27 07:03:00;;;;;;;11.57;8.93;;;;;;;13.48;67.47;100203.81;5052513;28;20048;-65
2021/05/27 07:05:28;;;;;;;13.13;9.60;;;;;;;13.51;68.38;100200.34;5052161;28;20060;-65
2021/05/27 07:07:57;;;;;;;11.25;8.80;;;;;;;13.76;67.08;100206.91;5052105;28;20053;-65
2021/05/27 07:10:24;;;;;;;12.75;9.60;;;;;;;13.76;67.24;100215.28;5052361;28;20060;-65
2021/05/27 07:12:52;;;;;;;13.70;10.45;;;;;;;13.70;67.27;100205.47;5052251;28;20076;-65
2021/05/27 07:15:20;;;;;;;13.20;10.10;;;;;;;13.60;67.05;100218.69;5051486;28;20408;-65
2021/05/27 07:17:47;;;;;;;12.68;10.32;;;;;;;13.84;67.07;100216.34;5050681;28;20401;-65
2021/05/27 07:20:15;;;;;;;11.27;9.82;;;;;;;13.86;66.67;100208.44;5050889;28;20048;-65
2021/05/27 07:22:43;;;;;;;12.48;10.07;;;;;;;14.01;66.61;100213.41;5050001;28;20401;-65
2021/05/27 07:25:11;;;;;;;14.63;10.75;;;;;;;14.16;66.19;100218.38;5049022;28;20509;-65
2021/05/27 07:27:38;;;;;;;12.18;9.50;;;;;;;14.30;65.72;100215.28;5046919;28;20057;-65
2021/05/27 07:30:08;;;;;;;12.18;9.40;;;;;;;14.14;65.67;100203.88;5047793;28;20059;-65
2021/05/27 07:32:36;;;;;;;;;;;;;;;14.25;65.59;100214.66;5045336;28;20409;-65
2021/05/27 07:35:04;;;;;;;10.50;7.97;;;;;;;14.28;65.05;100219.56;5050222;28;19925;-65
2021/05/27 07:37:32;;;;;;;11.63;8.85;;;;;;;14.38;64.83;100216.31;5049155;28;20438;-65
2021/05/27 07:39:58;;;;;;;11.75;9.55;;;;;;;14.57;63.67;100215.81;5049992;28;20445;-65
2021/05/27 07:42:25;;;;;;;11.30;9.13;;;;;;;14.36;64.89;100216.69;5048839;28;20060;-65
2021/05/27 07:44:52;;;;;;;11.88;9.48;;;;;;;14.56;64.59;100214.19;5051978;28;20148;-65
2021/05/27 07:47:19;;;;;;;12.52;9.50;;;;;;;14.77;64.15;100222.50;5048300;28;20049;-65
2021/05/27 07:49:46;;;;;;;13.23;9.63;;;;;;;14.73;64.57;100219.56;5049581;28;20057;-65
2021/05/27 07:52:13;;;;;;;9.68;8.38;;;;;;;14.59;63.61;100219.09;5045662;28;20490;-65
2021/05/27 07:54:41;;;;;;;13.13;10.23;;;;;;;14.52;64.45;100222.44;5047029;28;20056;-65
2021/05/27 07:57:07;;;;;;;12.48;9.40;;;;;;;14.36;64.53;100227.91;5047637;28;20052;-65
2021/05/27 07:59:37;;;;;;;14.75;10.57;;;;;;;14.17;65.32;100242.44;5048919;28;20053;-65
2021/05/27 08:02:04;;;;;;;13.57;10.32;;;;;;;13.95;65.12;100237.19;5048708;28;20044;-65
2021/05/27 08:04:31;;;;;;;11.38;10.18;;;;;;;13.89;65.80;100238.56;5050193;28;20056;-65
2021/05/27 08:06:58;;;;;;;13.40;10.48;;;;;;;13.91;66.05;100242.66;5050365;28;20053;-65
2021/05/27 08:09:25;;;;;;;13.18;9.68;;;;;;;13.80;66.28;100245.06;5049950;28;20587;-65
2021/05/27 08:11:52;;;;;;;9.95;8.27;;;;;;;13.69;65.77;100237.41;5049012;28;20056;-65
2021/05/27 08:14:19;;;;;;;13.52;10.52;;;;;;;13.75;66.46;100230.44;5049072;28;20064;-65
2021/05/27 08:16:47;;;;;;;13.88;10.57;;;;;;;13.64;66.47;100232.81;5050440;28;20068;-65
2021/05/27 08:19:14;;;;;;;11.73;8.88;;;;;;;13.73;66.35;100243.94;5049931;28;20417;-65
2021/05/27 08:21:41;;;;;;;10.98;8.18;;;;;;;13.54;66.20;100238.81;5050183;28;20060;-65
2021/05/27 08:24:08;;;;;;;11.75;8.80;;;;;;;13.46;66.94;100251.75;5049743;28;20056;-65
2021/05/27 08:26:35;;;;;;;9.88;8.05;;;;;;;13.38;67.09;100245.03;5041009;28;20064;-65
2021/05/27 08:29:05;;;;;;;12.18;9.10;;;;;;;13.32;68.22;100253.97;5048713;28;20061;-65
2021/05/27 08:31:32;;;;;;;9.40;7.82;;;;;;;13.25;67.61;100246.09;5050630;28;20053;-65
2021/05/27 08:33:59;;;;;;;10.30;7.78;;;;;;;13.16;68.13;100250.88;5052989;28;20057;-65
2021/05/27 08:36:26;;;;;;;8.98;7.88;;;;;;;13.18;68.29;100251.38;5053390;28;20053;-65
2021/05/27 08:38:53;;;;;;;12.23;8.18;;;;;;;13.13;68.29;100259.97;5052917;28;20047;-65
2021/05/27 08:41:20;;;;;;;9.73;7.90;;;;;;;13.38;68.26;100256.22;5041075;28;20056;-65
2021/05/27 08:43:48;;;;;;;12.13;8.27;;;;;;;13.38;67.91;100261.81;5049020;28;20060;-65
2021/05/27 08:46:16;;;;;;;10.35;8.50;;;;;;;13.51;67.74;100259.09;5051732;28;20060;-65
2021/05/27 08:48:44;;;;;;;9.82;6.95;;;;;;;13.53;66.79;100256.78;5048888;28;20417;-65
2021/05/27 08:51:12;;;;;;;9.25;6.97;;;;;;;13.33;67.37;100261.19;5053995;28;20053;-65
2021/05/27 08:53:39;;;;;;;8.50;7.40;;;;;;;13.30;68.46;100261.88;5051590;28;20053;-65
2021/05/27 08:56:07;;;;;;;11.90;8.35;;;;;;;13.12;69.26;100264.75;5055198;28;20375;-65
2021/05/27 08:58:34;;;;;;;10.57;8.40;;;;;;;13.12;69.16;100267.53;5052936;28;20056;-65
2021/05/27 09:01:01;;;;;;;12.45;8.00;;;;;;;13.06;68.90;100266.09;5055391;28;20393;-65
2021/05/27 09:03:39;;;;;;;9.45;6.82;;;;;;;13.01;69.36;100277.44;5053959;28;20040;-65
2021/05/27 09:06:07;;;;;;;10.10;7.93;;;;;;;12.97;69.31;100268.91;5054585;28;20061;-65
2021/05/27 09:08:36;;;;;;;10.65;7.82;;;;;;;12.87;69.64;100268.44;5051395;28;20057;-65
2021/05/27 09:11:05;;;;;;;9.95;8.07;;;;;;;12.87;69.72;100280.47;5053300;28;20052;-64
2021/05/27 09:13:32;;;;;;;10.23;7.68;;;;;;;12.69;70.08;100276.91;5052920;28;20059;-65
2021/05/27 09:16:10;;;;;;;12.15;7.88;;;;;;;12.84;70.79;100274.72;5052270;28;20061;-65
2021/05/27 09:18:40;;;;;;;9.55;7.32;;;;;;;12.90;70.05;100281.78;5052374;28;20107;-65
2021/05/27 09:21:08;;;;;;;11.30;8.35;;;;;;;12.88;70.05;100279.31;5052980;28;20056;-65
2021/05/27 09:23:36;;;;;;;11.60;7.70;;;;;;;12.90;70.12;100284.56;5051280;28;20529;-65
2021/05/27 09:26:07;;;;;;;13.10;8.10;;;;;;;12.92;70.05;100293.44;5054245;28;20398;-65
2021/05/27 09:28:35;;;;;;;11.02;8.18;;;;;;;13.06;70.57;100298.78;5051361;28;20057;-65
2021/05/27 09:31:04;;;;;;;9.57;6.95;;;;;;;13.13;69.54;100290.72;5052438;28;20053;-65
2021/05/27 09:33:33;;;;;;;11.35;8.00;;;;;;;13.17;70.01;100300.09;5053972;28;20068;-65
2021/05/27 09:36:03;;;;;;;12.05;8.05;;;;;;;13.30;69.47;100301.84;5053457;28;20053;-65
2021/05/27 09:38:31;;;;;;;10.82;7.93;;;;;;;13.48;69.16;100305.38;5049995;28;20049;-65
2021/05/27 09:40:58;;;;;;;12.13;8.85;;;;;;;13.70;68.84;100304.25;5052835;28;20512;-65
2021/05/27 09:43:26;;;;;;;9.75;7.75;;;;;;;13.72;67.95;100315.91;5051418;28;20048;-65
2021/05/27 09:46:05;;;;;;;11.65;7.78;;;;;;;13.75;68.40;100306.84;5053323;28;20059;-65
2021/05/27 09:48:33;;;;;;;10.52;7.60;;;;;;;13.95;67.16;100312.81;5050966;28;20053;-65
2021/05/27 09:51:02;;;;;;;9.88;6.85;;;;;;;14.14;66.64;100309.50;5053412;28;20056;-65
2021/05/27 09:53:31;;;;;;;10.00;6.63;;;;;;;14.12;66.45;100309.84;5053227;28;20063;-65
2021/05/27 09:55:59;;;;;;;9.15;6.95;;;;;;;14.33;65.19;100312.63;5053656;28;20056;-65
2021/05/27 09:58:26;;;;;;;9.27;6.30;;;;;;;14.60;63.88;100307.63;5046067;28;20379;-65
2021/05/27 10:00:55;;;;;;;8.88;6.53;;;;;;;14.73;64.14;100305.69;5051241;28;20060;-65
2021/05/27 10:03:33;;;;;;;10.60;7.35;;;;;;;14.59;64.73;100308.78;5053136;28;20087;-65
2021/05/27 10:06:06;;;;;;;8.93;6.32;;;;;;;14.43;64.62;100317.00;5051964;28;20057;-65
2021/05/27 10:08:54;;;;;;;10.95;7.57;;;;;;;14.20;65.47;100320.16;5052922;28;20489;-65
2021/05/27 10:11:23;;;;;;;9.52;7.38;;;;;;;14.32;65.38;100322.22;5042812;28;20057;-65
2021/05/27 10:13:51;;;;;;;11.43;8.02;;;;;;;14.45;66.01;100323.09;5049891;28;20049;-65
2021/05/27 10:16:20;;;;;;;10.38;6.53;;;;;;;14.53;65.36;100333.38;5051103;28;20044;-65
2021/05/27 10:18:49;;;;;;;6.93;5.85;;;;;;;14.32;64.74;100330.63;5048714;28;20068;-65
2021/05/27 10:21:17;;;;;;;9.57;6.25;;;;;;;14.48;65.09;100344.00;5052086;28;20057;-65
2021/05/27 10:23:44;;;;;;;6.85;5.90;;;;;;;14.50;65.00;100339.66;5052304;28;20429;-65
2021/05/27 10:26:11;;;;;;;7.07;4.80;;;;;;;14.66;63.36;100325.03;5051955;28;20049;-65
2021/05/27 10:28:45;;;;;;;5.93;5.10;;;;;;;14.74;63.63;100324.97;5051650;28;20057;-65
2021/05/27 10:31:13;;;;;;;8.25;4.95;;;;;;;14.81;62.14;100332.81;5052976;28;20049;-65
2021/05/27 10:33:42;;;;;;;7.38;4.70;;;;;;;14.76;63.31;100341.41;5052517;28;20057;-65
2021/05/27 10:36:10;;;;;;;8.93;5.82;;;;;;;14.90;63.19;100336.31;5052441;28;20057;-65
2021/05/27 10:38:50;;;;;;;9.02;5.97;;;;;;;14.96;62.38;100350.94;5052038;28;20056;-65
2021/05/27 10:41:19;;;;;;;6.88;5.32;;;;;;;14.95;62.48;100338.91;5050954;28;20052;-65
2021/05/27 10:44:16;;;;;;;7.65;6.72;;;;;;;14.97;62.93;100346.97;5052157;28;20071;-65
2021/05/27 10:47:07;;;;;;;8.68;5.85;;;;;;;14.89;62.04;100348.72;5051767;28;20409;-65
2021/05/27 10:49:53;;;;;;;7.32;5.53;;;;;;;14.87;62.56;100353.84;5048552;28;20060;-65
2021/05/27 10:52:41;;;;;;;8.00;5.75;;;;;;;14.72;63.15;100351.69;5051457;28;20059;-65
2021/05/27 10:55:55;;;;;;;6.68;5.97;;;;;;;14.73;63.65;100358.94;5050860;28;20052;-65
2021/05/27 10:59:11;;;;;;;6.05;5.25;;;;;;;14.63;63.30;100356.56;5052200;28;20052;-65
2021/05/27 11:01:52;;;;;;;9.05;6.20;;;;;;;14.38;63.18;100360.06;5051689;28;20440;-65
2021/05/27 11:04:40;;;;;;;10.25;6.85;;;;;;;14.29;64.54;100361.28;5051353;28;20049;-65
2021/05/27 11:07:25;;;;;;;8.50;5.50;;;;;;;14.46;64.22;100358.34;5048469;28;20074;-64
2021/05/27 11:09:56;;;;;;;8.93;5.88;;;;;;;14.72;63.95;100365.72;5045285;28;20053;-65
2021/05/27 11:12:26;;;;;;;8.27;5.38;;;;;;;14.71;62.95;100361.28;5051336;28;20049;-66
2021/05/27 11:15:17;;;;;;;8.02;5.35;;;;;;;15.33;61.71;100357.44;5051929;28;20060;-65
2021/05/27 11:18:09;;;;;;;7.68;4.68;;;;;;;16.29;59.58;100358.06;5050855;28;20049;-66
2021/05/27 11:20:36;;;;;;;7.45;4.82;;;;;;;17.10;57.72;100353.13;5051748;28;20068;-66
2021/05/27 11:23:19;;;;;;;4.93;3.95;;;;;;;17.17;56.64;100353.31;5048498;28;20060;-66
2021/05/27 11:25:46;;;;;;;6.25;4.30;;;;;;;17.66;55.16;100363.41;5048137;28;20065;-66
2021/05/27 11:28:34;;;;;;;4.95;4.03;;;;;;;17.78;54.98;100366.09;5052047;28;20049;-66
2021/05/27 11:31:02;;;;;;;6.77;4.53;;;;;;;17.95;55.11;100366.91;5046489;28;20049;-66